createdAt,value
2019-02-04T00:01:16.818Z,94.20
2019-02-04T00:03:46.539Z,94.10
2019-02-04T00:06:16.191Z,94.00
2019-02-04T00:08:45.866Z,94.00
2019-02-04T00:11:15.793Z,93.50
2019-02-04T00:13:45.434Z,93.40
2019-02-04T00:16:15.251Z,93.20
2019-02-04T00:18:45.258Z,93.40
2019-02-04T00:21:16.042Z,93.30
2019-02-04T00:23:46.056Z,93.50
2019-02-04T00:26:16.251Z,93.50
2019-02-04T00:28:46.004Z,93.50
2019-02-04T00:31:15.672Z,93.50
2019-02-04T00:33:45.306Z,93.60
2019-02-04T00:36:14.802Z,93.50
2019-02-04T00:38:44.494Z,93.60
2019-02-04T00:41:14.117Z,93.80
2019-02-04T00:43:43.759Z,93.80
2019-02-04T00:46:14.210Z,93.90
2019-02-04T00:48:43.706Z,94.00
2019-02-04T00:51:13.411Z,94.00
2019-02-04T00:53:44.058Z,94.00
2019-02-04T00:56:13.767Z,94.10
2019-02-04T00:58:52.716Z,94.10
2019-02-04T01:01:23.498Z,94.10
2019-02-04T01:03:53.226Z,94.20
2019-02-04T01:06:22.890Z,94.20
2019-02-04T01:08:54.378Z,94.20
2019-02-04T01:11:24.090Z,94.10
2019-02-04T01:13:53.607Z,94.10
2019-02-04T01:16:23.111Z,94.20
2019-02-04T01:18:52.610Z,94.70
2019-02-04T01:21:22.216Z,94.50
2019-02-04T01:23:52.295Z,94.90
2019-02-04T01:26:24.811Z,95.30
2019-02-04T01:28:54.442Z,95.60
2019-02-04T01:31:24.014Z,95.70
2019-02-04T01:33:53.514Z,95.90
2019-02-04T01:36:23.203Z,96.30
2019-02-04T01:38:53.212Z,96.40
2019-02-04T01:41:24.551Z,96.50
2019-02-04T01:43:54.363Z,97.10
2019-02-04T01:46:23.922Z,96.80
2019-02-04T01:48:53.552Z,96.90
2019-02-04T01:51:41.523Z,97.00
2019-02-04T01:54:11.098Z,97.10
2019-02-04T01:56:40.594Z,97.20
2019-02-04T01:59:10.340Z,97.20
2019-02-04T02:01:39.996Z,97.40
2019-02-04T02:04:09.659Z,97.40
2019-02-04T02:06:39.247Z,97.50
2019-02-04T02:09:11.006Z,97.80
2019-02-04T02:11:40.588Z,97.60
2019-02-04T02:14:10.246Z,97.50
2019-02-04T02:16:40.120Z,97.50
2019-02-04T02:19:09.919Z,97.50
2019-02-04T02:21:51.456Z,97.60
2019-02-04T02:24:21.222Z,97.60
2019-02-04T02:26:50.718Z,97.70
2019-02-04T02:29:20.334Z,97.30
2019-02-04T02:31:50.079Z,97.40
2019-02-04T02:34:19.651Z,97.50
2019-02-04T02:36:50.243Z,97.60
2019-02-04T02:39:19.811Z,97.40
2019-02-04T02:41:49.578Z,97.40
2019-02-04T02:44:20.072Z,97.40
2019-02-04T02:46:49.642Z,97.40
2019-02-04T02:49:19.148Z,97.70
2019-02-04T02:51:48.739Z,97.40
2019-02-04T02:54:18.230Z,97.30
2019-02-04T02:56:48.298Z,97.30
2019-02-04T02:59:18.107Z,97.70
2019-02-04T03:01:47.680Z,97.40
2019-02-04T03:04:17.314Z,97.40
2019-02-04T03:06:46.990Z,97.40
2019-02-04T03:09:16.742Z,97.50
2019-02-04T03:11:46.231Z,97.50
2019-02-04T03:14:15.755Z,97.60
2019-02-04T03:16:45.389Z,97.60
2019-02-04T03:19:15.169Z,97.80
2019-02-04T03:21:50.604Z,97.70
2019-02-04T03:24:20.184Z,97.80
2019-02-04T03:26:49.807Z,97.90
2019-02-04T03:29:22.575Z,97.90
2019-02-04T03:31:52.086Z,98.00
2019-02-04T03:34:21.635Z,98.10
2019-02-04T03:36:51.512Z,98.10
2019-02-04T03:39:21.074Z,98.30
2019-02-04T03:41:50.644Z,98.30
2019-02-04T03:44:20.263Z,98.40
2019-02-04T03:46:49.900Z,98.20
2019-02-04T03:49:19.534Z,98.30
2019-02-04T03:51:49.129Z,98.40
2019-02-04T03:54:18.695Z,98.30
2019-02-04T03:56:48.216Z,98.10
2019-02-04T03:59:17.891Z,98.00
2019-02-04T04:01:47.387Z,98.00
2019-02-04T04:04:17.523Z,97.90
2019-02-04T04:06:47.138Z,97.70
2019-02-04T04:09:16.705Z,97.60
2019-02-04T04:11:46.362Z,97.70
2019-02-04T04:14:16.062Z,97.60
2019-02-04T04:16:45.623Z,97.40
2019-02-04T04:19:15.219Z,97.80
2019-02-04T04:21:53.562Z,97.40
2019-02-04T04:24:23.148Z,97.80
2019-02-04T04:26:52.767Z,97.90
2019-02-04T04:29:22.664Z,97.50
2019-02-04T04:31:52.235Z,97.50
2019-02-04T04:34:21.809Z,97.60
2019-02-04T04:36:51.425Z,97.70
2019-02-04T04:39:21.066Z,97.70
2019-02-04T04:41:50.626Z,97.70
2019-02-04T04:44:20.371Z,97.80
2019-02-04T04:46:49.856Z,97.80
2019-02-04T04:49:19.495Z,97.70
2019-02-04T04:51:49.423Z,97.90
2019-02-04T04:54:19.006Z,97.70
2019-02-04T04:56:48.566Z,98.00
2019-02-04T04:59:18.432Z,98.20
2019-02-04T05:01:48.134Z,98.10
2019-02-04T05:04:17.691Z,98.10
2019-02-04T05:06:47.283Z,98.50
2019-02-04T05:09:26.111Z,98.30
2019-02-04T05:11:56.019Z,98.30
2019-02-04T05:14:25.655Z,98.10
2019-02-04T05:16:55.208Z,98.10
2019-02-04T05:19:24.822Z,98.20
2019-02-04T05:21:54.382Z,98.00
2019-02-04T05:24:26.643Z,97.80
2019-02-04T05:26:56.246Z,98.00
2019-02-04T05:29:25.805Z,97.70
2019-02-04T05:31:56.402Z,97.80
2019-02-04T05:34:25.986Z,97.80
2019-02-04T05:36:55.566Z,97.60
2019-02-04T05:39:25.412Z,97.30
2019-02-04T05:41:54.995Z,97.20
2019-02-04T05:44:24.564Z,97.50
2019-02-04T05:46:54.195Z,97.20
2019-02-04T05:49:25.410Z,96.90
2019-02-04T05:51:55.416Z,97.00
2019-02-04T05:54:25.065Z,97.20
2019-02-04T05:56:54.655Z,96.90
2019-02-04T05:59:24.214Z,97.10
2019-02-04T06:01:53.699Z,97.20
2019-02-04T06:04:23.643Z,97.10
2019-02-04T06:06:53.403Z,97.40
2019-02-04T06:09:22.890Z,97.50
2019-02-04T06:11:53.611Z,97.60
2019-02-04T06:14:23.174Z,97.70
2019-02-04T06:16:52.935Z,98.00
2019-02-04T06:19:23.660Z,98.00
2019-02-04T06:21:53.295Z,98.20
2019-02-04T06:24:22.868Z,98.40
2019-02-04T06:26:53.609Z,98.40
2019-02-04T06:29:23.170Z,98.50
2019-02-04T06:31:52.659Z,98.50
2019-02-04T06:34:23.399Z,98.60
2019-02-04T06:36:52.969Z,98.70
2019-02-04T06:39:22.527Z,98.80
2019-02-04T06:41:52.131Z,98.90
2019-02-04T06:44:21.687Z,98.70
2019-02-04T06:46:51.316Z,98.70
2019-02-04T06:49:20.858Z,98.70
2019-02-04T06:51:50.420Z,98.60
2019-02-04T06:54:19.984Z,98.40
2019-02-04T06:56:50.643Z,98.40
2019-02-04T06:59:20.207Z,98.30
2019-02-04T07:01:50.039Z,98.40
2019-02-04T07:04:19.566Z,98.30
2019-02-04T07:06:49.207Z,98.10
2019-02-04T07:09:18.767Z,98.30
2019-02-04T07:11:48.528Z,98.30
2019-02-04T07:14:18.154Z,98.10
2019-02-04T07:16:48.087Z,98.00
2019-02-04T07:19:24.531Z,98.50
2019-02-04T07:21:49.012Z,98.00
2019-02-04T07:24:18.571Z,98.00
2019-02-04T07:26:48.187Z,98.30
2019-02-04T07:29:17.819Z,98.30
2019-02-04T07:31:47.749Z,98.20
2019-02-04T07:34:17.377Z,98.30
2019-02-04T07:36:46.950Z,98.10
2019-02-04T07:39:16.636Z,98.10
2019-02-04T07:41:46.234Z,98.10
2019-02-04T07:44:15.934Z,98.00
2019-02-04T07:46:45.635Z,98.10
2019-02-04T07:49:16.606Z,98.00
2019-02-04T07:51:46.174Z,98.00
2019-02-04T07:54:15.662Z,98.00
2019-02-04T07:56:45.340Z,98.00
2019-02-04T07:59:15.399Z,98.00
2019-02-04T08:01:45.192Z,98.10
2019-02-04T08:04:14.802Z,98.20
2019-02-04T08:06:44.363Z,98.00
2019-02-04T08:09:14.125Z,98.10
2019-02-04T08:11:44.948Z,98.20
2019-02-04T08:14:14.683Z,98.10
2019-02-04T08:16:44.323Z,98.00
2019-02-04T08:19:16.590Z,98.10
2019-02-04T08:21:46.154Z,98.10
2019-02-04T08:24:15.723Z,98.20
2019-02-04T08:26:45.868Z,98.00
2019-02-04T08:29:16.632Z,97.80
2019-02-04T08:31:46.289Z,97.90
2019-02-04T08:34:15.996Z,98.10
2019-02-04T08:36:46.499Z,98.10
2019-02-04T08:39:16.107Z,98.00
2019-02-04T08:41:45.981Z,97.80
2019-02-04T08:44:15.547Z,97.80
2019-02-04T08:46:45.112Z,97.80
2019-02-04T08:49:15.694Z,97.90
2019-02-04T08:51:45.333Z,98.30
2019-02-04T08:54:14.926Z,97.80
2019-02-04T08:56:45.840Z,97.90
2019-02-04T08:59:15.403Z,97.90
2019-02-04T09:01:45.683Z,97.90
2019-02-04T09:04:16.247Z,98.00
2019-02-04T09:06:45.877Z,97.80
2019-02-04T09:09:16.723Z,97.70
2019-02-04T09:11:46.690Z,97.70
2019-02-04T09:14:16.424Z,97.70
2019-02-04T09:16:46.116Z,97.50
2019-02-04T09:19:17.245Z,97.50
2019-02-04T09:21:46.994Z,97.40
2019-02-04T09:24:16.488Z,97.30
2019-02-04T09:26:46.316Z,97.20
2019-02-04T09:29:15.878Z,97.10
2019-02-04T09:31:45.450Z,97.00
2019-02-04T09:34:15.219Z,96.80
2019-02-04T09:36:44.789Z,96.60
2019-02-04T09:39:14.494Z,96.40
2019-02-04T09:41:44.763Z,96.20
2019-02-04T09:44:14.326Z,95.90
2019-02-04T09:46:43.958Z,95.50
2019-02-04T09:49:16.399Z,95.40
2019-02-04T09:51:45.978Z,95.70
2019-02-04T09:54:16.142Z,95.90
2019-02-04T09:56:45.920Z,95.80
2019-02-04T09:59:15.486Z,96.10
2019-02-04T10:01:45.187Z,95.90
2019-02-04T10:04:16.526Z,95.40
2019-02-04T10:06:46.241Z,95.80
2019-02-04T10:09:15.731Z,95.60
2019-02-04T10:11:45.678Z,95.00
2019-02-04T10:14:15.379Z,95.00
2019-02-04T10:16:45.079Z,95.10
2019-02-04T10:19:14.841Z,94.50
2019-02-04T10:21:44.484Z,94.60
2019-02-04T10:24:14.103Z,93.00
2019-02-04T10:26:43.826Z,92.80
2019-02-04T10:29:13.462Z,92.50
2019-02-04T10:31:43.204Z,91.40
2019-02-04T10:34:12.804Z,91.80
2019-02-04T10:36:42.899Z,91.70
2019-02-04T10:39:12.513Z,91.90
2019-02-04T10:41:42.213Z,92.50
2019-02-04T10:44:11.976Z,92.20
2019-02-04T10:46:41.566Z,92.60
2019-02-04T10:49:11.198Z,92.10
2019-02-04T10:51:41.723Z,91.60
2019-02-04T10:54:11.315Z,91.70
2019-02-04T10:56:40.907Z,91.80
2019-02-04T10:59:10.449Z,91.60
2019-02-04T11:01:40.064Z,91.60
2019-02-04T11:04:18.400Z,91.40
2019-02-04T11:06:49.337Z,91.10
2019-02-04T11:09:18.966Z,90.80
2019-02-04T11:11:48.617Z,90.50
2019-02-04T11:14:18.312Z,90.40
2019-02-04T11:16:48.187Z,90.40
2019-02-04T11:19:17.851Z,90.70
2019-02-04T11:21:53.386Z,90.50
2019-02-04T11:24:23.144Z,90.90
2019-02-04T11:26:52.797Z,91.00
2019-02-04T11:29:22.432Z,90.70
2019-02-04T11:31:52.632Z,90.10
2019-02-04T11:34:22.287Z,90.20
2019-02-04T11:36:51.838Z,87.60
2019-02-04T11:39:22.986Z,86.10
2019-02-04T11:41:52.552Z,83.70
2019-02-04T11:44:22.648Z,84.00
2019-02-04T11:46:52.724Z,84.50
2019-02-04T11:49:22.301Z,84.90
2019-02-04T11:51:51.878Z,83.90
2019-02-04T11:54:21.471Z,83.70
2019-02-04T11:56:51.035Z,81.50
2019-02-04T11:59:20.679Z,75.60
2019-02-04T12:01:50.424Z,69.40
2019-02-04T12:04:20.135Z,69.20
2019-02-04T12:06:49.842Z,72.60
2019-02-04T12:09:19.431Z,75.80
2019-02-04T12:11:48.998Z,75.80
2019-02-04T12:14:18.567Z,77.10
2019-02-04T12:16:48.946Z,80.30
2019-02-04T12:19:18.515Z,78.90
2019-02-04T12:21:54.918Z,78.20
2019-02-04T12:24:24.525Z,76.40
2019-02-04T12:26:54.094Z,78.20
2019-02-04T12:29:25.271Z,77.60
2019-02-04T12:31:54.902Z,77.90
2019-02-04T12:34:24.468Z,79.00
2019-02-04T12:36:54.082Z,76.60
2019-02-04T12:39:24.022Z,77.70
2019-02-04T12:41:53.670Z,76.90
2019-02-04T12:44:23.277Z,77.60
2019-02-04T12:46:52.910Z,78.00
2019-02-04T12:49:22.406Z,78.90
2019-02-04T12:51:52.021Z,78.40
2019-02-04T12:54:21.883Z,81.00
2019-02-04T12:56:51.591Z,80.10
2019-02-04T12:59:21.258Z,81.70
2019-02-04T13:01:50.747Z,80.00
2019-02-04T13:04:20.383Z,79.60
2019-02-04T13:06:50.160Z,79.00
2019-02-04T13:09:19.827Z,78.40
2019-02-04T13:11:49.468Z,71.40
2019-02-04T13:14:19.062Z,57.30
2019-02-04T13:16:48.631Z,55.80
2019-02-04T13:19:18.195Z,58.10
2019-02-04T13:21:48.292Z,63.30
2019-02-04T13:24:17.943Z,67.00
2019-02-04T13:26:47.566Z,70.50
2019-02-04T13:29:18.662Z,72.00
2019-02-04T13:31:48.230Z,73.00
2019-02-04T13:34:17.870Z,74.40
2019-02-04T13:36:49.020Z,76.00
2019-02-04T13:39:18.722Z,77.30
2019-02-04T13:41:48.287Z,77.80
2019-02-04T13:44:20.952Z,78.80
2019-02-04T13:46:50.585Z,76.20
2019-02-04T13:49:20.592Z,73.70
2019-02-04T13:51:57.152Z,70.50
2019-02-04T13:54:21.587Z,72.80
2019-02-04T13:56:51.224Z,74.30
2019-02-04T13:59:20.827Z,76.60
2019-02-04T14:01:50.387Z,75.90
2019-02-04T14:04:20.014Z,76.80
2019-02-04T14:06:49.694Z,77.20
2019-02-04T14:09:19.400Z,77.80
2019-02-04T14:11:49.362Z,77.00
2019-02-04T14:14:19.138Z,76.70
2019-02-04T14:16:49.444Z,75.40
2019-02-04T14:19:19.169Z,74.50
2019-02-04T14:21:51.661Z,72.30
2019-02-04T14:24:21.295Z,63.90
2019-02-04T14:26:51.035Z,57.00
2019-02-04T14:29:20.635Z,50.70
2019-02-04T14:31:50.290Z,53.00
2019-02-04T14:34:19.859Z,56.60
2019-02-04T14:36:49.458Z,62.10
2019-02-04T14:39:19.112Z,63.90
2019-02-04T14:41:50.451Z,66.20
2019-02-04T14:44:21.800Z,67.90
2019-02-04T14:46:54.444Z,67.60
2019-02-04T14:49:45.314Z,66.30
2019-02-04T14:52:36.361Z,66.40
2019-02-04T14:55:08.974Z,65.30
2019-02-04T14:57:41.622Z,64.30
2019-02-04T15:00:14.825Z,66.10
2019-02-04T15:02:53.003Z,67.80
2019-02-04T15:05:25.923Z,70.00
2019-02-04T15:08:04.563Z,71.00
2019-02-04T15:10:39.089Z,70.70
2019-02-04T15:13:31.067Z,71.50
2019-02-04T15:16:09.701Z,72.60
2019-02-04T15:18:59.939Z,73.20
2019-02-04T15:21:43.183Z,73.50
2019-02-04T15:24:37.906Z,74.50
2019-02-04T15:27:22.991Z,76.40
2019-02-04T15:30:01.885Z,77.10
2019-02-04T15:32:49.262Z,78.20
2019-02-04T15:35:21.902Z,78.30
2019-02-04T15:38:11.244Z,78.20
2019-02-04T15:40:50.046Z,77.70
2019-02-04T15:43:34.695Z,77.70
2019-02-04T15:46:20.239Z,77.60
2019-02-04T15:49:21.532Z,78.20
2019-02-04T15:51:53.695Z,78.70
2019-02-04T15:54:23.255Z,80.00
2019-02-04T15:56:53.036Z,81.20
2019-02-04T15:59:22.527Z,80.90
2019-02-04T16:01:52.422Z,81.40
2019-02-04T16:04:30.338Z,81.90
2019-02-04T16:07:00.038Z,82.80
2019-02-04T16:09:30.510Z,82.20
2019-02-04T16:12:00.047Z,82.90
2019-02-04T16:14:29.671Z,83.00
2019-02-04T16:16:59.223Z,84.40
2019-02-04T16:19:28.739Z,85.00
2019-02-04T16:21:58.294Z,83.80
2019-02-04T16:24:27.922Z,83.80
2019-02-04T16:26:57.617Z,84.20
2019-02-04T16:29:27.490Z,84.40
2019-02-04T16:31:57.188Z,84.20
2019-02-04T16:34:28.163Z,84.90
2019-02-04T16:36:57.726Z,85.40
2019-02-04T16:39:27.296Z,83.50
2019-02-04T16:41:57.877Z,83.60
2019-02-04T16:44:27.822Z,83.30
2019-02-04T16:46:58.051Z,83.80
2019-02-04T16:49:28.062Z,83.90
2019-02-04T16:51:58.362Z,85.40
2019-02-04T16:54:27.923Z,85.00
2019-02-04T16:56:58.498Z,86.00
2019-02-04T16:59:28.066Z,86.60
2019-02-04T17:01:57.999Z,87.20
2019-02-04T17:04:29.741Z,88.50
2019-02-04T17:06:59.649Z,88.80
2019-02-04T17:09:29.288Z,87.70
2019-02-04T17:12:00.055Z,89.60
2019-02-04T17:14:29.623Z,89.00
2019-02-04T17:17:00.283Z,87.00
2019-02-04T17:19:29.967Z,87.10
2019-02-04T17:22:00.122Z,87.50
2019-02-04T17:24:29.698Z,87.50
2019-02-04T17:27:00.006Z,87.80
2019-02-04T17:29:29.643Z,87.40
2019-02-04T17:32:00.583Z,88.00
2019-02-04T17:34:32.468Z,88.80
2019-02-04T17:37:02.894Z,88.30
2019-02-04T17:39:32.763Z,89.00
2019-02-04T17:42:04.198Z,88.50
2019-02-04T17:44:33.822Z,88.80
2019-02-04T17:47:03.483Z,89.60
2019-02-04T17:49:33.185Z,90.00
2019-02-04T17:52:02.852Z,90.00
2019-02-04T17:54:32.391Z,90.10
2019-02-04T17:57:02.037Z,90.20
2019-02-04T17:59:31.598Z,90.50
2019-02-04T18:02:01.262Z,91.50
2019-02-04T18:04:31.971Z,91.50
2019-02-04T18:07:03.247Z,91.40
2019-02-04T18:09:34.594Z,91.20
2019-02-04T18:12:06.931Z,91.70
2019-02-04T18:14:38.150Z,91.20
2019-02-04T18:17:08.536Z,91.20
2019-02-04T18:19:39.763Z,91.20
2019-02-04T18:22:10.959Z,91.50
2019-02-04T18:24:41.795Z,91.80
2019-02-04T18:27:13.670Z,92.10
2019-02-04T18:29:44.930Z,92.00
2019-02-04T18:32:16.621Z,92.00
2019-02-04T18:34:47.827Z,92.40
2019-02-04T18:37:19.223Z,92.60
2019-02-04T18:39:49.059Z,92.80
2019-02-04T18:42:18.743Z,93.60
2019-02-04T18:44:48.623Z,93.90
2019-02-04T18:47:18.264Z,94.20
2019-02-04T18:49:48.001Z,94.30
2019-02-04T18:52:18.352Z,94.50
2019-02-04T18:54:47.932Z,94.90
2019-02-04T18:57:17.963Z,95.10
2019-02-04T18:59:47.582Z,95.20
2019-02-04T19:02:17.137Z,95.00
2019-02-04T19:04:46.869Z,95.20
2019-02-04T19:07:16.451Z,95.10
2019-02-04T19:09:45.943Z,95.10
2019-02-04T19:12:15.815Z,95.20
2019-02-04T19:14:46.075Z,95.00
2019-02-04T19:17:18.327Z,94.90
2019-02-04T19:19:47.862Z,94.90
2019-02-04T19:22:17.374Z,94.80
2019-02-04T19:24:47.016Z,95.00
2019-02-04T19:27:16.823Z,95.00
2019-02-04T19:29:46.388Z,95.40
2019-02-04T19:32:16.048Z,95.50
2019-02-04T19:34:45.671Z,95.30
2019-02-04T19:37:17.097Z,95.60
2019-02-04T19:39:46.679Z,95.40
2019-02-04T19:42:17.823Z,95.20
2019-02-04T19:44:47.675Z,94.90
2019-02-04T19:47:17.355Z,94.50
2019-02-04T19:49:46.972Z,94.50
2019-02-04T19:52:16.620Z,94.30
2019-02-04T19:54:46.392Z,94.10
2019-02-04T19:57:16.473Z,93.90
2019-02-04T19:59:46.051Z,93.90
2019-02-04T20:02:18.939Z,94.00
2019-02-04T20:04:48.629Z,94.60
2019-02-04T20:07:18.336Z,95.10
2019-02-04T20:09:47.992Z,95.40
2019-02-04T20:12:17.593Z,95.50
2019-02-04T20:14:47.201Z,95.70
2019-02-04T20:17:16.843Z,95.50
2019-02-04T20:19:46.868Z,95.60
2019-02-04T20:22:16.487Z,95.70
2019-02-04T20:24:46.059Z,95.70
2019-02-04T20:27:17.222Z,96.10
2019-02-04T20:29:46.802Z,96.50
2019-02-04T20:32:16.371Z,96.80
2019-02-04T20:34:45.970Z,97.00
2019-02-04T20:37:15.858Z,97.20
2019-02-04T20:39:45.534Z,97.40
2019-02-04T20:42:15.233Z,97.30
2019-02-04T20:44:45.007Z,97.40
2019-02-04T20:47:14.715Z,97.70
2019-02-04T20:49:45.052Z,97.60
2019-02-04T20:52:15.055Z,97.30
2019-02-04T20:54:45.396Z,97.70
2019-02-04T20:57:15.047Z,97.80
2019-02-04T20:59:46.019Z,97.70
2019-02-04T21:02:15.592Z,98.00
2019-02-04T21:04:46.394Z,98.00
2019-02-04T21:07:16.042Z,97.90
2019-02-04T21:09:45.645Z,97.60
2019-02-04T21:12:15.444Z,97.60
2019-02-04T21:14:45.236Z,97.70
2019-02-04T21:17:14.907Z,98.00
2019-02-04T21:19:44.667Z,98.30
2019-02-04T21:22:14.235Z,98.50
2019-02-04T21:24:43.979Z,98.40
2019-02-04T21:27:13.599Z,98.20
2019-02-04T21:29:55.430Z,98.20
2019-02-04T21:32:25.563Z,98.40
2019-02-04T21:34:55.630Z,98.30
2019-02-04T21:37:25.351Z,98.10
2019-02-04T21:39:56.801Z,98.20
2019-02-04T21:42:26.436Z,98.30
2019-02-04T21:44:56.482Z,98.50
2019-02-04T21:47:26.332Z,98.60
2019-02-04T21:49:56.867Z,98.30
2019-02-04T21:52:26.370Z,98.20
2019-02-04T21:55:07.697Z,98.50
2019-02-04T21:57:28.687Z,98.30
2019-02-04T22:00:00.336Z,98.00
2019-02-04T22:02:31.647Z,98.00
2019-02-04T22:05:02.771Z,98.30
2019-02-04T22:07:32.402Z,98.40
2019-02-04T22:10:05.450Z,98.70
2019-02-04T22:12:35.928Z,99.20
2019-02-04T22:15:08.451Z,99.90
2019-02-04T22:17:59.099Z,99.90
2019-02-04T22:20:30.303Z,99.90
2019-02-04T22:23:01.510Z,99.80
2019-02-04T22:25:32.885Z,99.80
2019-02-04T22:28:23.431Z,99.40
2019-02-04T22:30:54.846Z,99.30
2019-02-04T22:33:26.214Z,99.10
2019-02-04T22:35:57.355Z,99.00
2019-02-04T22:38:28.624Z,98.50
2019-02-04T22:40:59.837Z,98.80
2019-02-04T22:43:31.039Z,98.80
2019-02-04T22:46:02.391Z,98.90
2019-02-04T22:48:33.605Z,99.00
2019-02-04T22:51:04.712Z,99.00
2019-02-04T22:53:52.371Z,99.50
2019-02-04T22:56:21.944Z,99.50
2019-02-04T22:58:52.225Z,99.20
2019-02-04T23:01:27.590Z,99.20
2019-02-04T23:03:57.154Z,99.30
2019-02-04T23:06:26.808Z,99.10
2019-02-04T23:08:56.410Z,99.20
2019-02-04T23:11:26.058Z,99.30
2019-02-04T23:13:55.694Z,99.30
2019-02-04T23:16:25.291Z,99.20
2019-02-04T23:18:54.786Z,99.60
2019-02-04T23:21:24.346Z,99.60
2019-02-04T23:23:55.639Z,99.70
2019-02-04T23:26:25.227Z,99.80
2019-02-04T23:28:54.807Z,99.80
2019-02-04T23:31:24.982Z,99.70
2019-02-04T23:33:54.480Z,99.70
2019-02-04T23:36:24.191Z,99.60
2019-02-04T23:38:53.790Z,99.30
2019-02-04T23:41:23.434Z,99.10
2019-02-04T23:43:53.043Z,98.70
2019-02-04T23:46:22.864Z,98.40
2019-02-04T23:48:52.695Z,98.50
2019-02-04T23:51:22.350Z,98.30
2019-02-04T23:53:52.099Z,99.10
2019-02-04T23:56:21.669Z,99.10
2019-02-04T23:58:51.238Z,99.00
